createdAt,value
2018-04-10T00:07:01.174Z,0
2018-04-10T00:17:01.165Z,0
2018-04-10T00:27:01.211Z,0
2018-04-10T00:37:01.247Z,0
2018-04-10T00:47:01.148Z,0
2018-04-10T00:57:01.290Z,0
2018-04-10T01:07:01.323Z,0
2018-04-10T01:17:01.173Z,0
2018-04-10T01:27:01.148Z,0
2018-04-10T01:37:01.142Z,0
2018-04-10T01:47:01.194Z,0
2018-04-10T01:57:01.174Z,0
2018-04-10T02:07:01.095Z,0
2018-04-10T02:17:01.360Z,0
2018-04-10T02:27:01.357Z,0
2018-04-10T02:37:01.338Z,0
2018-04-10T02:47:01.374Z,0
2018-04-10T02:57:01.391Z,0
2018-04-10T03:07:01.359Z,0
2018-04-10T03:17:01.672Z,0
2018-04-10T03:27:01.299Z,0
2018-04-10T03:37:01.357Z,0
2018-04-10T03:47:01.324Z,0
2018-04-10T03:57:01.100Z,0
2018-04-10T04:07:01.190Z,0
2018-04-10T04:17:01.121Z,0
2018-04-10T04:27:01.189Z,0
2018-04-10T04:37:01.151Z,0
2018-04-10T04:47:01.141Z,0
2018-04-10T04:57:01.198Z,10
2018-04-10T05:07:01.119Z,20
2018-04-10T05:17:01.289Z,30
2018-04-10T05:27:01.158Z,50
2018-04-10T05:37:01.189Z,60
2018-04-10T05:47:01.129Z,65
2018-04-10T05:57:01.288Z,70
2018-04-10T06:07:01.175Z,80
2018-04-10T06:17:01.192Z,95
2018-04-10T06:27:01.230Z,105
2018-04-10T06:37:01.244Z,115
2018-04-10T06:47:01.222Z,125
2018-04-10T06:57:01.321Z,130
2018-04-10T07:07:01.555Z,130
2018-04-10T07:17:01.381Z,135
2018-04-10T07:27:02.413Z,130
2018-04-10T07:37:01.672Z,130
2018-04-10T07:47:01.364Z,135
2018-04-10T07:57:01.356Z,160
2018-04-10T08:07:01.338Z,210
2018-04-10T08:17:01.317Z,270
2018-04-10T08:27:01.345Z,245
2018-04-10T08:37:01.289Z,155
2018-04-10T08:47:01.392Z,150
2018-04-10T08:57:01.314Z,160
2018-04-10T09:07:01.315Z,165
2018-04-10T09:17:01.404Z,155
2018-04-10T09:27:01.369Z,145
2018-04-10T09:37:01.418Z,135
2018-04-10T09:47:01.401Z,135
2018-04-10T09:57:01.299Z,135
2018-04-10T10:07:01.377Z,135
2018-04-10T10:17:01.278Z,145
2018-04-10T10:27:01.564Z,130
2018-04-10T10:37:01.287Z,130
2018-04-10T10:47:01.351Z,130
2018-04-10T10:57:01.333Z,145
2018-04-10T11:07:01.353Z,155
2018-04-10T11:17:01.265Z,170
2018-04-10T11:27:01.357Z,155
2018-04-10T11:37:01.278Z,155
2018-04-10T11:47:01.420Z,155
2018-04-10T11:57:01.434Z,150
2018-04-10T12:07:01.334Z,150
2018-04-10T12:17:01.368Z,145
2018-04-10T12:27:01.339Z,135
2018-04-10T12:37:01.487Z,135
2018-04-10T12:47:01.338Z,135
2018-04-10T12:57:01.335Z,135
2018-04-10T13:07:01.412Z,135
2018-04-10T13:17:01.411Z,130
2018-04-10T13:27:01.432Z,145
2018-04-10T13:37:01.328Z,150
2018-04-10T13:47:01.317Z,140
2018-04-10T13:57:01.385Z,155
2018-04-10T14:07:01.549Z,170
2018-04-10T14:17:01.620Z,160
2018-04-10T14:27:01.598Z,155
2018-04-10T14:37:01.834Z,155
2018-04-10T14:47:01.424Z,150
2018-04-10T14:57:01.383Z,150
2018-04-10T15:07:01.585Z,150
2018-04-10T15:17:01.487Z,150
2018-04-10T15:27:01.383Z,140
2018-04-10T15:37:02.464Z,125
2018-04-10T15:47:01.660Z,110
2018-04-10T15:57:01.536Z,100
2018-04-10T16:07:01.869Z,95
2018-04-10T16:17:01.546Z,90
2018-04-10T16:27:03.855Z,80
2018-04-10T16:37:01.475Z,75
2018-04-10T16:47:01.478Z,70
2018-04-10T16:57:01.746Z,65
2018-04-10T17:07:01.511Z,55
2018-04-10T17:17:01.314Z,50
2018-04-10T17:27:02.405Z,40
2018-04-10T17:37:01.426Z,30
2018-04-10T17:47:01.454Z,20
2018-04-10T17:57:01.540Z,15
2018-04-10T18:07:02.572Z,5
2018-04-10T18:17:01.476Z,0
2018-04-10T18:27:01.448Z,0
2018-04-10T18:37:01.478Z,0
2018-04-10T18:47:01.426Z,0
2018-04-10T18:57:01.590Z,0
2018-04-10T19:07:01.412Z,0
2018-04-10T19:17:01.593Z,0
2018-04-10T19:27:02.024Z,0
2018-04-10T19:37:01.407Z,0
2018-04-10T19:47:01.576Z,0
2018-04-10T19:57:01.404Z,0
2018-04-10T20:07:01.781Z,0
2018-04-10T20:17:01.564Z,0
2018-04-10T20:27:01.409Z,0
2018-04-10T20:37:01.473Z,0
2018-04-10T20:47:01.563Z,0
2018-04-10T20:57:01.561Z,0
2018-04-10T21:07:01.647Z,0
2018-04-10T21:17:02.591Z,0
2018-04-10T21:27:01.697Z,0
2018-04-10T21:37:01.412Z,0
2018-04-10T21:47:01.640Z,0
2018-04-10T21:57:03.365Z,0
2018-04-10T22:07:01.718Z,0
2018-04-10T22:17:01.478Z,0
2018-04-10T22:27:01.493Z,0
2018-04-10T22:37:01.362Z,0
2018-04-10T22:47:01.463Z,0
2018-04-10T22:57:01.567Z,0
2018-04-10T23:07:01.436Z,0
2018-04-10T23:17:01.496Z,0
2018-04-10T23:27:01.447Z,0
2018-04-10T23:37:01.420Z,0
2018-04-10T23:47:01.504Z,0
2018-04-10T23:57:01.468Z,0
